EST,Max TemperatureF,Mean TemperatureF,Min TemperatureF,Max Dew PointF,MeanDew PointF,Min DewpointF,Max Humidity, Mean Humidity, Min Humidity, Max Sea Level PressureIn, Mean Sea Level PressureIn, Min Sea Level PressureIn, Max VisibilityMiles, Mean VisibilityMiles, Min VisibilityMiles, Max Wind SpeedMPH, Mean Wind SpeedMPH, Max Gust SpeedMPH,PrecipitationIn, CloudCover, Events, WindDirDegrees
2013-12-1,53,40,28,41,34,28,100,80,51,30.32,30.19,30.03,10,10,3,5,0,,0.00,2,,191
2013-12-2,50,46,42,50,45,41,100,98,87,30.03,29.91,29.83,10,5,2,6,1,,0.01,8,Rain,153
2013-12-3,55,50,44,54,51,45,100,100,94,29.90,29.85,29.83,10,6,1,7,1,,0.01,8,Rain,160
2013-12-4,69,61,53,63,58,54,100,95,78,30.02,29.95,29.90,10,9,5,10,3,,0.00,7,,153
2013-12-5,71,66,60,68,66,61,100,99,88,30.06,30.00,29.95,10,8,4,8,3,,0.00,8,Rain,158
2013-12-6,73,57,41,68,60,41,100,92,73,30.15,30.01,29.93,10,9,3,20,7,24,0.01,8,Rain-Thunderstorm,175
2013-12-7,41,39,35,39,37,36,100,95,87,30.35,30.29,30.17,10,10,4,18,13,25,0.00,8,,347
2013-12-8,46,40,35,46,41,36,100,100,100,30.30,30.20,30.11,10,6,2,9,5,,0.04,8,Rain,202
2013-12-9,51,46,42,50,45,43,100,99,88,30.17,30.12,30.03,10,8,1,10,3,16,0.01,8,Rain,222
2013-12-10,42,36,28,43,35,28,100,89,65,30.38,30.22,30.01,10,9,3,18,7,23,0.03,4,Rain,338
2013-12-11,50,37,24,32,29,25,100,84,40,30.47,30.40,30.35,10,10,4,6,1,,0.00,0,,5
2013-12-12,41,34,28,32,24,19,100,73,42,30.53,30.45,30.40,10,10,10,15,7,21,0.00,0,,338
2013-12-13,48,36,23,32,26,21,100,71,37,30.43,30.29,30.15,10,10,10,6,1,,0.00,1,,277
2013-12-14,51,46,41,52,45,30,100,90,57,30.18,29.94,29.82,10,7,2,15,5,23,0.03,7,Rain,165
2013-12-15,46,42,35,45,38,34,93,89,87,30.02,29.95,29.89,10,10,10,15,10,24,0.00,8,Rain,315
2013-12-16,50,42,33,36,34,32,100,76,54,30.28,30.21,30.17,10,10,10,8,4,,0.00,0,,157
2013-12-17,60,45,30,37,34,30,100,68,39,30.25,30.17,30.07,10,10,10,15,5,22,0.00,0,,205
2013-12-18,48,39,28,30,27,21,100,70,34,30.37,30.31,30.25,10,10,7,10,5,,0.00,0,,331
2013-12-19,59,42,26,34,29,27,100,67,29,30.33,30.25,30.18,10,10,10,7,1,,0.00,0,,176
2013-12-20,62,48,35,52,41,32,93,71,51,30.21,30.15,30.09,10,10,10,12,3,17,0.00,6,,166
2013-12-21,68,62,57,66,60,52,100,92,82,30.09,29.96,29.87,10,10,4,16,6,24,0.01,8,Rain,156
2013-12-22,68,60,53,66,57,54,100,99,88,30.10,29.98,29.84,10,8,3,14,7,28,0.10,8,Rain-Thunderstorm,151
2013-12-23,53,43,33,54,41,30,100,90,81,30.34,30.21,30.06,10,9,4,18,6,25,0.03,8,Rain,339
2013-12-24,35,32,28,30,25,19,93,75,56,30.47,30.41,30.34,10,10,10,18,11,25,0.00,1,,337
2013-12-25,44,32,21,28,23,19,100,73,42,30.48,30.40,30.33,10,10,10,8,3,,0.00,0,,182
2013-12-26,50,37,24,32,29,25,100,82,47,30.40,30.35,30.30,10,10,10,9,1,,0.00,0,,342
2013-12-27,51,38,24,32,29,25,100,83,41,30.49,30.41,30.35,10,10,5,5,0,,0.00,0,,313
2013-12-28,37,32,28,37,34,28,100,99,87,30.41,30.27,29.96,10,8,2,7,1,,0.07,5,Rain-Snow,344
2013-12-29,46,40,33,45,39,34,100,97,87,30.08,29.97,29.90,10,7,1,7,1,,0.02,7,Rain,338
2013-12-30,41,38,35,41,36,34,100,93,76,30.25,30.16,30.06,10,9,3,10,3,,0.00,8,Rain,336
2013-12-31,41,36,30,34,31,28,100,88,61,30.45,30.35,30.23,10,10,7,15,3,21,0.00,1,,335